createdAt,value
2018-05-12T00:00:43.039Z,10.52
2018-05-12T00:01:43.011Z,10.57
2018-05-12T00:02:42.990Z,10.49
2018-05-12T00:03:43.001Z,10.63
2018-05-12T00:04:42.931Z,10.61
2018-05-12T00:05:42.924Z,10.61
2018-05-12T00:06:42.870Z,10.54
2018-05-12T00:07:42.849Z,10.52
2018-05-12T00:08:42.876Z,10.55
2018-05-12T00:09:42.796Z,10.57
2018-05-12T00:10:42.810Z,10.46
2018-05-12T00:11:42.730Z,10.54
2018-05-12T00:12:42.752Z,10.46
2018-05-12T00:13:42.730Z,10.58
2018-05-12T00:14:42.649Z,10.42
2018-05-12T00:15:42.616Z,10.46
2018-05-12T00:16:42.588Z,10.42
2018-05-12T00:17:42.576Z,10.42
2018-05-12T00:18:43.367Z,10.44
2018-05-12T00:19:43.390Z,10.38
2018-05-12T00:20:42.486Z,10.44
2018-05-12T00:21:42.457Z,10.38
2018-05-12T00:22:42.433Z,10.39
2018-05-12T00:23:43.281Z,10.32
2018-05-12T00:24:42.371Z,10.44
2018-05-12T00:25:42.344Z,10.36
2018-05-12T00:26:42.314Z,10.35
2018-05-12T00:27:42.289Z,10.29
2018-05-12T00:28:42.314Z,10.33
2018-05-12T00:29:42.228Z,10.33
2018-05-12T00:30:43.179Z,10.35
2018-05-12T00:31:42.179Z,10.32
2018-05-12T00:32:42.150Z,10.41
2018-05-12T00:33:42.163Z,10.44
2018-05-12T00:34:42.091Z,10.38
2018-05-12T00:35:42.060Z,10.41
2018-05-12T00:36:42.082Z,10.39
2018-05-12T00:37:42.010Z,10.41
2018-05-12T00:38:41.977Z,10.41
2018-05-12T00:39:42.346Z,10.46
2018-05-12T00:40:41.941Z,10.41
2018-05-12T00:41:41.902Z,10.31
2018-05-12T00:42:41.866Z,10.28
2018-05-12T00:43:41.842Z,10.29
2018-05-12T00:44:41.855Z,10.31
2018-05-12T00:45:41.787Z,10.33
2018-05-12T00:46:41.762Z,10.31
2018-05-12T00:47:41.727Z,10.33
2018-05-12T00:48:41.742Z,10.35
2018-05-12T00:49:41.683Z,10.31
2018-05-12T00:50:41.733Z,10.32
2018-05-12T00:51:41.617Z,10.26
2018-05-12T00:52:41.689Z,10.33
2018-05-12T00:53:41.606Z,10.28
2018-05-12T00:54:41.529Z,10.28
2018-05-12T00:55:41.557Z,10.23
2018-05-12T00:56:41.474Z,10.29
2018-05-12T00:57:41.449Z,10.39
2018-05-12T00:58:42.675Z,10.36
2018-05-12T00:59:41.396Z,10.47
2018-05-12T01:00:41.413Z,10.39
2018-05-12T01:01:41.332Z,10.41
2018-05-12T01:02:41.316Z,10.49
2018-05-12T01:03:41.277Z,10.41
2018-05-12T01:04:41.564Z,10.39
2018-05-12T01:05:41.219Z,10.41
2018-05-12T01:06:41.199Z,10.41
2018-05-12T01:07:41.169Z,10.41
2018-05-12T01:08:41.138Z,10.32
2018-05-12T01:09:41.155Z,10.28
2018-05-12T01:10:41.090Z,10.29
2018-05-12T01:11:41.050Z,10.35
2018-05-12T01:12:41.065Z,10.36
2018-05-12T01:13:41.070Z,10.31
2018-05-12T01:14:40.963Z,10.32
2018-05-12T01:15:40.934Z,10.31
2018-05-12T01:16:40.908Z,10.44
2018-05-12T01:17:40.925Z,10.28
2018-05-12T01:18:40.882Z,10.39
2018-05-12T01:19:40.830Z,10.31
2018-05-12T01:20:40.803Z,10.36
2018-05-12T01:21:40.808Z,10.35
2018-05-12T01:22:40.748Z,10.25
2018-05-12T01:23:40.712Z,10.18
2018-05-12T01:24:40.726Z,10.18
2018-05-12T01:25:40.668Z,10.21
2018-05-12T01:26:40.673Z,10.15
2018-05-12T01:27:40.601Z,10.17
2018-05-12T01:28:40.604Z,10.20
2018-05-12T01:29:40.603Z,10.17
2018-05-12T01:30:40.518Z,10.21
2018-05-12T01:31:40.487Z,10.17
2018-05-12T01:32:40.458Z,10.25
2018-05-12T01:33:40.432Z,10.26
2018-05-12T01:34:40.461Z,10.23
2018-05-12T01:35:40.382Z,10.18
2018-05-12T01:36:40.345Z,10.26
2018-05-12T01:37:40.318Z,10.23
2018-05-12T01:38:40.295Z,10.23
2018-05-12T01:39:40.311Z,10.14
2018-05-12T01:40:40.234Z,10.13
2018-05-12T01:41:40.209Z,10.03
2018-05-12T01:42:40.178Z,10.14
2018-05-12T01:43:40.194Z,10.14
2018-05-12T01:44:40.119Z,10.03
2018-05-12T01:45:40.092Z,10.13
2018-05-12T01:46:40.109Z,10.17
2018-05-12T01:47:40.038Z,10.07
2018-05-12T01:48:40.055Z,10.10
2018-05-12T01:49:39.980Z,10.08
2018-05-12T01:50:39.953Z,10.14
2018-05-12T01:51:39.922Z,10.13
2018-05-12T01:52:39.902Z,10.14
2018-05-12T01:53:39.905Z,10.14
2018-05-12T01:54:39.839Z,10.08
2018-05-12T01:55:39.857Z,10.13
2018-05-12T01:56:39.783Z,10.07
2018-05-12T01:57:39.761Z,10.00
2018-05-12T01:58:39.777Z,9.99
2018-05-12T01:59:39.700Z,9.98
2018-05-12T02:00:39.669Z,9.96
2018-05-12T02:01:39.648Z,9.89
2018-05-12T02:02:39.612Z,9.85
2018-05-12T02:03:39.629Z,9.82
2018-05-12T02:04:39.558Z,9.82
2018-05-12T02:05:39.531Z,9.85
2018-05-12T02:06:39.546Z,9.82
2018-05-12T02:07:39.473Z,9.89
2018-05-12T02:08:39.448Z,9.89
2018-05-12T02:09:39.468Z,9.89
2018-05-12T02:10:39.385Z,9.90
2018-05-12T02:11:39.363Z,9.82
2018-05-12T02:12:39.330Z,9.82
2018-05-12T02:13:39.309Z,9.81
2018-05-12T02:14:39.313Z,9.74
2018-05-12T02:15:39.289Z,9.88
2018-05-12T02:16:39.217Z,9.72
2018-05-12T02:17:39.191Z,9.71
2018-05-12T02:18:39.162Z,9.71
2018-05-12T02:19:39.139Z,9.63
2018-05-12T02:20:39.163Z,9.66
2018-05-12T02:21:39.077Z,9.60
2018-05-12T02:22:39.054Z,9.63
2018-05-12T02:23:39.021Z,9.60
2018-05-12T02:24:38.990Z,9.64
2018-05-12T02:25:39.009Z,9.62
2018-05-12T02:26:38.938Z,9.60
2018-05-12T02:27:38.908Z,9.70
2018-05-12T02:28:38.875Z,9.59
2018-05-12T02:29:38.853Z,9.52
2018-05-12T02:30:38.868Z,9.52
2018-05-12T02:31:38.832Z,9.48
2018-05-12T02:32:38.765Z,9.48
2018-05-12T02:33:38.735Z,9.45
2018-05-12T02:34:38.708Z,9.47
2018-05-12T02:35:38.683Z,9.48
2018-05-12T02:36:38.703Z,9.44
2018-05-12T02:37:38.627Z,9.44
2018-05-12T02:38:38.597Z,9.45
2018-05-12T02:39:39.289Z,9.41
2018-05-12T02:40:38.544Z,9.47
2018-05-12T02:41:38.562Z,9.39
2018-05-12T02:42:38.484Z,9.41
2018-05-12T02:43:39.292Z,9.41
2018-05-12T02:44:38.424Z,9.35
2018-05-12T02:45:38.399Z,9.39
2018-05-12T02:46:38.421Z,9.42
2018-05-12T02:47:38.337Z,9.34
2018-05-12T02:48:38.308Z,9.37
2018-05-12T02:49:38.279Z,9.27
2018-05-12T02:50:38.253Z,9.37
2018-05-12T02:51:38.359Z,9.34
2018-05-12T02:52:38.197Z,9.34
2018-05-12T02:53:38.169Z,9.35
2018-05-12T02:54:38.139Z,9.29
2018-05-12T02:55:38.135Z,9.30
2018-05-12T02:56:38.130Z,9.29
2018-05-12T02:57:38.098Z,9.24
2018-05-12T02:58:38.037Z,9.30
2018-05-12T02:59:38.000Z,9.35
2018-05-12T03:00:37.968Z,9.26
2018-05-12T03:01:37.938Z,9.20
2018-05-12T03:02:37.976Z,9.35
2018-05-12T03:03:37.963Z,9.30
2018-05-12T03:04:37.863Z,9.34
2018-05-12T03:05:37.831Z,9.34
2018-05-12T03:06:37.795Z,9.30
2018-05-12T03:07:37.812Z,9.27
2018-05-12T03:08:37.817Z,9.26
2018-05-12T03:09:37.757Z,9.30
2018-05-12T03:10:37.686Z,9.39
2018-05-12T03:11:37.653Z,9.39
2018-05-12T03:12:37.624Z,9.44
2018-05-12T03:13:37.639Z,9.42
2018-05-12T03:14:37.572Z,9.47
2018-05-12T03:15:37.551Z,9.45
2018-05-12T03:16:37.510Z,9.48
2018-05-12T03:17:37.495Z,9.45
2018-05-12T03:18:37.500Z,9.48
2018-05-12T03:19:37.429Z,9.50
2018-05-12T03:20:37.394Z,9.52
2018-05-12T03:21:37.370Z,9.48
2018-05-12T03:22:37.341Z,9.52
2018-05-12T03:23:37.361Z,9.44
2018-05-12T03:24:37.335Z,9.48
2018-05-12T03:25:37.258Z,9.52
2018-05-12T03:26:37.227Z,9.53
2018-05-12T03:27:37.196Z,9.52
2018-05-12T03:28:37.167Z,9.57
2018-05-12T03:29:37.183Z,9.55
2018-05-12T03:30:37.116Z,9.62
2018-05-12T03:31:37.702Z,9.57
2018-05-12T03:32:37.054Z,9.60
2018-05-12T03:33:37.026Z,9.60
2018-05-12T03:34:37.043Z,9.59
2018-05-12T03:35:36.971Z,9.60
2018-05-12T03:36:36.941Z,9.59
2018-05-12T03:37:36.954Z,9.62
2018-05-12T03:38:36.883Z,9.70
2018-05-12T03:39:36.904Z,9.82
2018-05-12T03:40:36.955Z,9.88
2018-05-12T03:41:36.799Z,9.84
2018-05-12T03:42:36.774Z,10.03
2018-05-12T03:43:36.772Z,10.18
2018-05-12T03:44:36.760Z,10.21
2018-05-12T03:45:36.694Z,10.36
2018-05-12T03:46:36.658Z,10.29
2018-05-12T03:47:36.625Z,10.31
2018-05-12T03:48:36.601Z,10.39
2018-05-12T03:49:36.629Z,10.42
2018-05-12T03:50:36.544Z,10.41
2018-05-12T03:51:36.516Z,10.49
2018-05-12T03:52:36.483Z,10.55
2018-05-12T03:53:36.460Z,10.51
2018-05-12T03:54:36.474Z,10.39
2018-05-12T03:55:36.409Z,10.49
2018-05-12T03:56:36.372Z,10.44
2018-05-12T03:57:36.344Z,10.57
2018-05-12T03:58:36.316Z,10.59
2018-05-12T03:59:36.345Z,10.58
2018-05-12T04:00:36.260Z,10.54
2018-05-12T04:01:36.238Z,10.65
2018-05-12T04:02:36.254Z,10.63
2018-05-12T04:03:36.176Z,10.69
2018-05-12T04:04:36.148Z,10.77
2018-05-12T04:05:36.171Z,10.83
2018-05-12T04:06:36.093Z,10.94
2018-05-12T04:07:36.062Z,11.02
2018-05-12T04:08:36.171Z,10.98
2018-05-12T04:09:36.060Z,11.10
2018-05-12T04:10:35.980Z,11.09
2018-05-12T04:11:36.007Z,11.23
2018-05-12T04:12:35.926Z,11.21
2018-05-12T04:13:35.896Z,11.21
2018-05-12T04:14:35.870Z,11.23
2018-05-12T04:15:35.841Z,11.28
2018-05-12T04:16:35.854Z,11.28
2018-05-12T04:17:35.788Z,11.35
2018-05-12T04:18:35.760Z,11.49
2018-05-12T04:19:35.772Z,11.63
2018-05-12T04:20:35.705Z,11.66
2018-05-12T04:21:35.720Z,11.67
2018-05-12T04:22:36.306Z,11.76
2018-05-12T04:23:35.618Z,11.76
2018-05-12T04:24:35.593Z,11.76
2018-05-12T04:25:35.567Z,11.79
2018-05-12T04:26:35.585Z,11.89
2018-05-12T04:27:35.508Z,12.00
2018-05-12T04:28:35.489Z,11.98
2018-05-12T04:29:36.301Z,12.00
2018-05-12T04:30:35.476Z,12.05
2018-05-12T04:31:35.457Z,12.00
2018-05-12T04:32:35.375Z,12.18
2018-05-12T04:33:35.391Z,12.10
2018-05-12T04:34:35.321Z,12.13
2018-05-12T04:35:35.293Z,12.16
2018-05-12T04:36:35.268Z,12.25
2018-05-12T04:37:35.285Z,12.31
2018-05-12T04:38:35.214Z,12.23
2018-05-12T04:39:35.226Z,12.31
2018-05-12T04:40:35.173Z,12.40
2018-05-12T04:41:35.807Z,12.33
2018-05-12T04:42:35.141Z,12.47
2018-05-12T04:43:35.123Z,12.56
2018-05-12T04:44:35.054Z,12.58
2018-05-12T04:45:35.105Z,12.66
2018-05-12T04:46:35.013Z,12.65
2018-05-12T04:47:34.968Z,12.69
2018-05-12T04:48:34.984Z,12.83
2018-05-12T04:49:34.966Z,12.84
2018-05-12T04:50:34.942Z,12.95
2018-05-12T04:51:34.863Z,12.89
2018-05-12T04:52:34.849Z,12.89
2018-05-12T04:53:34.810Z,13.07
2018-05-12T04:54:34.783Z,13.03
2018-05-12T04:55:34.871Z,13.09
2018-05-12T04:56:34.733Z,13.11
2018-05-12T04:57:34.701Z,13.20
2018-05-12T04:58:34.686Z,13.24
2018-05-12T04:59:34.708Z,13.29
2018-05-12T05:00:34.627Z,13.37
2018-05-12T05:01:34.600Z,13.40
2018-05-12T05:02:34.593Z,13.45
2018-05-12T05:03:34.547Z,13.47
2018-05-12T05:04:34.566Z,13.63
2018-05-12T05:05:34.497Z,13.60
2018-05-12T05:06:34.481Z,13.70
2018-05-12T05:07:34.448Z,13.81
2018-05-12T05:08:34.426Z,13.81
2018-05-12T05:09:34.439Z,13.87
2018-05-12T05:10:34.384Z,13.88
2018-05-12T05:11:34.386Z,13.83
2018-05-12T05:12:34.323Z,13.90
2018-05-12T05:13:34.295Z,13.91
2018-05-12T05:14:34.270Z,14.12
2018-05-12T05:15:34.295Z,14.13
2018-05-12T05:16:34.215Z,14.27
2018-05-12T05:17:34.186Z,14.39
2018-05-12T05:18:34.170Z,14.45
2018-05-12T05:19:34.137Z,14.63
2018-05-12T05:20:34.173Z,14.70
2018-05-12T05:21:34.090Z,14.70
2018-05-12T05:22:34.065Z,14.94
2018-05-12T05:23:34.040Z,14.98
2018-05-12T05:24:34.014Z,15.02
2018-05-12T05:25:34.034Z,15.13
2018-05-12T05:26:33.964Z,15.30
2018-05-12T05:27:33.947Z,15.34
2018-05-12T05:28:33.964Z,15.41
2018-05-12T05:29:33.895Z,15.65
2018-05-12T05:30:33.871Z,15.65
2018-05-12T05:31:33.849Z,15.74
2018-05-12T05:32:33.858Z,15.83
2018-05-12T05:33:33.796Z,15.93
2018-05-12T05:34:34.016Z,15.98
2018-05-12T05:35:33.747Z,16.17
2018-05-12T05:36:33.727Z,16.13
2018-05-12T05:37:33.704Z,16.18
2018-05-12T05:38:33.677Z,16.25
2018-05-12T05:39:33.699Z,16.34
2018-05-12T05:40:33.631Z,16.33
2018-05-12T05:41:33.614Z,16.40
2018-05-12T05:42:33.587Z,16.49
2018-05-12T05:43:33.607Z,16.49
2018-05-12T05:44:33.541Z,16.49
2018-05-12T05:45:33.600Z,16.54
2018-05-12T05:46:33.505Z,16.48
2018-05-12T05:47:33.515Z,16.52
2018-05-12T05:48:33.446Z,16.59
2018-05-12T05:49:33.424Z,16.69
2018-05-12T05:50:33.460Z,16.73
2018-05-12T05:51:33.388Z,16.63
2018-05-12T05:52:33.352Z,16.69
2018-05-12T05:53:33.333Z,16.73
2018-05-12T05:54:33.310Z,16.65
2018-05-12T05:55:33.337Z,16.72
2018-05-12T05:56:33.263Z,16.74
2018-05-12T05:57:33.241Z,16.80
2018-05-12T05:58:33.264Z,16.84
2018-05-12T05:59:33.197Z,16.97
2018-05-12T06:00:33.525Z,16.97
2018-05-12T06:01:33.257Z,16.88
2018-05-12T06:02:33.130Z,17.06
2018-05-12T06:03:33.102Z,17.09
2018-05-12T06:04:33.087Z,17.09
2018-05-12T06:05:33.102Z,17.07
2018-05-12T06:06:33.085Z,17.21
2018-05-12T06:07:33.011Z,17.18
2018-05-12T06:08:32.990Z,17.20
2018-05-12T06:09:32.968Z,17.27
2018-05-12T06:10:33.048Z,17.25
2018-05-12T06:11:32.973Z,17.36
2018-05-12T06:12:32.904Z,17.38
2018-05-12T06:13:32.879Z,17.46
2018-05-12T06:14:32.855Z,17.49
2018-05-12T06:15:32.840Z,17.47
2018-05-12T06:16:32.854Z,17.63
2018-05-12T06:17:32.794Z,17.49
2018-05-12T06:18:32.769Z,17.63
2018-05-12T06:19:32.745Z,17.69
2018-05-12T06:20:32.787Z,17.81
2018-05-12T06:21:32.750Z,17.81
2018-05-12T06:22:32.687Z,17.81
2018-05-12T06:23:32.661Z,17.87
2018-05-12T06:24:32.678Z,17.95
2018-05-12T06:25:32.618Z,18.06
2018-05-12T06:26:32.595Z,18.02
2018-05-12T06:27:33.329Z,18.10
2018-05-12T06:28:32.596Z,18.23
2018-05-12T06:29:32.568Z,18.34
2018-05-12T06:30:32.516Z,18.51
2018-05-12T06:31:32.481Z,18.65
2018-05-12T06:32:32.461Z,18.69
2018-05-12T06:33:32.581Z,18.79
2018-05-12T06:34:32.418Z,18.84
2018-05-12T06:35:32.395Z,18.78
2018-05-12T06:36:32.381Z,18.78
2018-05-12T06:37:32.357Z,18.84
2018-05-12T06:38:32.379Z,18.96
2018-05-12T06:39:32.362Z,19.07
2018-05-12T06:40:32.295Z,19.00
2018-05-12T06:41:32.282Z,19.00
2018-05-12T06:42:32.249Z,19.07
2018-05-12T06:43:32.281Z,19.12
2018-05-12T06:44:32.210Z,19.19
2018-05-12T06:45:32.236Z,19.06
2018-05-12T06:46:32.178Z,19.09
2018-05-12T06:47:32.148Z,19.19
2018-05-12T06:48:32.139Z,19.16
2018-05-12T06:49:32.105Z,19.13
2018-05-12T06:50:32.132Z,19.10
2018-05-12T06:51:32.105Z,19.19
2018-05-12T06:52:32.044Z,19.19
2018-05-12T06:53:32.024Z,19.30
2018-05-12T06:54:32.001Z,19.27
2018-05-12T06:55:31.982Z,19.32
2018-05-12T06:56:32.005Z,19.42
2018-05-12T06:57:31.948Z,19.42
2018-05-12T06:58:31.919Z,19.38
2018-05-12T06:59:31.900Z,19.38
2018-05-12T07:00:31.882Z,19.34
2018-05-12T07:01:31.909Z,19.47
2018-05-12T07:02:31.839Z,19.47
2018-05-12T07:03:31.818Z,19.63
2018-05-12T07:04:31.801Z,19.75
2018-05-12T07:05:31.788Z,19.75
2018-05-12T07:06:31.802Z,19.82
2018-05-12T07:07:31.742Z,19.87
2018-05-12T07:08:31.722Z,19.97
2018-05-12T07:09:31.699Z,20.05
2018-05-12T07:10:31.694Z,20.08
2018-05-12T07:11:31.721Z,20.04
2018-05-12T07:12:31.639Z,20.07
2018-05-12T07:13:31.619Z,20.01
2018-05-12T07:14:31.617Z,19.97
2018-05-12T07:15:31.578Z,20.04
2018-05-12T07:16:31.606Z,20.01
2018-05-12T07:17:31.542Z,20.10
2018-05-12T07:18:31.565Z,20.25
2018-05-12T07:19:31.555Z,20.30
2018-05-12T07:20:31.479Z,20.42
2018-05-12T07:21:31.462Z,20.44
2018-05-12T07:22:31.498Z,20.53
2018-05-12T07:23:31.420Z,20.51
2018-05-12T07:24:31.407Z,20.60
2018-05-12T07:25:31.387Z,20.66
2018-05-12T07:26:31.364Z,20.72
2018-05-12T07:27:31.404Z,20.71
2018-05-12T07:28:31.330Z,20.75
2018-05-12T07:29:31.346Z,20.63
2018-05-12T07:30:31.283Z,20.72
2018-05-12T07:31:31.264Z,20.85
2018-05-12T07:32:31.292Z,20.81
2018-05-12T07:33:31.231Z,20.81
2018-05-12T07:34:31.210Z,20.83
2018-05-12T07:35:31.236Z,20.74
2018-05-12T07:36:31.171Z,20.74
2018-05-12T07:37:31.151Z,20.54
2018-05-12T07:38:31.129Z,20.49
2018-05-12T07:39:31.179Z,20.60
2018-05-12T07:40:31.088Z,20.71
2018-05-12T07:41:31.070Z,20.79
2018-05-12T07:42:31.052Z,20.82
2018-05-12T07:43:31.035Z,21.03
2018-05-12T07:44:31.084Z,21.00
2018-05-12T07:45:31.127Z,20.94
2018-05-12T07:46:30.976Z,20.98
2018-05-12T07:47:30.958Z,21.03
2018-05-12T07:48:30.939Z,21.11
2018-05-12T07:49:30.917Z,21.21
2018-05-12T07:50:30.943Z,21.36
2018-05-12T07:51:30.933Z,21.34
2018-05-12T07:52:30.857Z,21.40
2018-05-12T07:53:30.865Z,21.46
2018-05-12T07:54:30.826Z,21.46
2018-05-12T07:55:30.869Z,21.49
2018-05-12T07:56:30.789Z,21.28
2018-05-12T07:57:30.763Z,21.22
2018-05-12T07:58:30.741Z,21.03
2018-05-12T07:59:30.748Z,20.85
2018-05-12T08:00:30.745Z,20.63
2018-05-12T08:01:30.688Z,20.44
2018-05-12T08:02:30.668Z,20.32
2018-05-12T08:03:30.656Z,20.41
2018-05-12T08:04:30.626Z,20.32
2018-05-12T08:05:30.650Z,20.34
2018-05-12T08:06:30.584Z,20.26
2018-05-12T08:07:30.568Z,20.12
2018-05-12T08:08:30.545Z,20.08
2018-05-12T08:09:30.575Z,19.95
2018-05-12T08:10:30.550Z,19.67
2018-05-12T08:11:30.490Z,19.60
2018-05-12T08:12:30.513Z,19.65
2018-05-12T08:13:30.444Z,19.67
2018-05-12T08:14:30.426Z,19.78
2018-05-12T08:15:30.445Z,19.79
2018-05-12T08:16:30.386Z,19.97
2018-05-12T08:17:30.373Z,20.01
2018-05-12T08:18:30.345Z,20.10
2018-05-12T08:19:30.323Z,20.12
2018-05-12T08:20:30.354Z,20.08
2018-05-12T08:21:30.337Z,20.05
2018-05-12T08:22:30.266Z,19.93
2018-05-12T08:23:30.241Z,19.74
2018-05-12T08:24:30.221Z,19.74
2018-05-12T08:25:30.202Z,19.67
2018-05-12T08:26:30.235Z,19.78
2018-05-12T08:27:30.157Z,19.95
2018-05-12T08:28:30.140Z,20.08
2018-05-12T08:29:30.116Z,20.08
2018-05-12T08:30:30.095Z,20.35
2018-05-12T08:31:30.123Z,20.49
2018-05-12T08:32:30.116Z,20.66
2018-05-12T08:33:30.037Z,20.75
2018-05-12T08:34:30.027Z,20.86
2018-05-12T08:35:29.993Z,20.97
2018-05-12T08:36:29.977Z,20.93
2018-05-12T08:37:30.014Z,21.11
2018-05-12T08:38:29.957Z,21.21
2018-05-12T08:39:29.920Z,21.45
2018-05-12T08:40:30.002Z,21.55
2018-05-12T08:41:29.887Z,21.66
2018-05-12T08:42:29.916Z,21.67
2018-05-12T08:43:29.834Z,21.76
2018-05-12T08:44:29.830Z,21.73
2018-05-12T08:45:29.831Z,21.70
2018-05-12T08:46:29.778Z,21.71
2018-05-12T08:47:29.806Z,21.67
2018-05-12T08:48:29.788Z,21.74
2018-05-12T08:49:29.721Z,21.89
2018-05-12T08:50:29.707Z,21.89
2018-05-12T08:51:29.684Z,21.93
2018-05-12T08:52:29.661Z,21.80
2018-05-12T08:53:29.705Z,21.82
2018-05-12T08:54:29.619Z,21.82
2018-05-12T08:55:29.605Z,21.78
2018-05-12T08:56:29.584Z,21.92
2018-05-12T08:57:29.571Z,21.90
2018-05-12T08:58:29.594Z,21.89
2018-05-12T08:59:29.535Z,21.90
2018-05-12T09:00:29.507Z,21.90
2018-05-12T09:01:29.520Z,22.05
2018-05-12T09:02:29.512Z,22.11
2018-05-12T09:03:29.506Z,22.08
2018-05-12T09:04:29.434Z,22.15
2018-05-12T09:05:29.474Z,21.97
2018-05-12T09:06:29.394Z,21.74
2018-05-12T09:07:29.451Z,21.70
2018-05-12T09:08:29.404Z,21.83
2018-05-12T09:09:29.417Z,21.90
2018-05-12T09:10:29.371Z,21.77
2018-05-12T09:11:29.304Z,21.56
2018-05-12T09:12:29.331Z,21.45
2018-05-12T09:13:29.275Z,21.38
2018-05-12T09:14:29.304Z,21.16
2018-05-12T09:15:29.228Z,21.21
2018-05-12T09:16:29.203Z,21.15
2018-05-12T09:17:29.193Z,21.21
2018-05-12T09:18:29.171Z,21.16
2018-05-12T09:19:29.272Z,21.33
2018-05-12T09:20:29.130Z,21.46
2018-05-12T09:21:29.113Z,21.56
2018-05-12T09:22:29.089Z,21.59
2018-05-12T09:23:29.103Z,21.85
2018-05-12T09:24:29.090Z,21.97
2018-05-12T09:25:29.070Z,22.04
2018-05-12T09:26:29.018Z,22.07
2018-05-12T09:27:29.000Z,22.12
2018-05-12T09:28:28.983Z,22.11
2018-05-12T09:29:28.998Z,22.04
2018-05-12T09:30:28.945Z,22.18
2018-05-12T09:31:28.969Z,22.26
2018-05-12T09:32:28.901Z,22.41
2018-05-12T09:33:28.890Z,22.49
2018-05-12T09:34:28.866Z,22.49
2018-05-12T09:35:28.850Z,22.36
2018-05-12T09:36:28.897Z,22.33
2018-05-12T09:37:28.820Z,22.29
2018-05-12T09:38:28.793Z,22.27
2018-05-12T09:39:28.797Z,22.42
2018-05-12T09:40:28.757Z,22.48
2018-05-12T09:41:28.790Z,22.54
2018-05-12T09:42:28.733Z,22.69
2018-05-12T09:43:28.705Z,22.76
2018-05-12T09:44:28.692Z,22.66
2018-05-12T09:45:28.669Z,22.64
2018-05-12T09:46:28.705Z,22.61
2018-05-12T09:47:28.623Z,22.52
2018-05-12T09:48:28.604Z,22.41
2018-05-12T09:49:28.581Z,22.44
2018-05-12T09:50:28.602Z,22.39
2018-05-12T09:51:28.607Z,22.38
2018-05-12T09:52:28.572Z,22.36
2018-05-12T09:53:28.517Z,22.31
2018-05-12T09:54:28.501Z,22.08
2018-05-12T09:55:28.473Z,22.20
2018-05-12T09:56:28.514Z,22.23
2018-05-12T09:57:28.479Z,22.22
2018-05-12T09:58:28.423Z,22.09
2018-05-12T09:59:28.543Z,22.08
2018-05-12T10:00:28.388Z,22.09
2018-05-12T10:01:28.363Z,22.02
2018-05-12T10:02:28.341Z,22.12
2018-05-12T10:03:28.428Z,22.23
2018-05-12T10:04:28.310Z,22.27
2018-05-12T10:05:28.283Z,22.31
2018-05-12T10:06:28.493Z,22.38
2018-05-12T10:07:28.245Z,22.42
2018-05-12T10:08:28.278Z,22.49
2018-05-12T10:09:28.206Z,22.64
2018-05-12T10:10:28.244Z,22.73
2018-05-12T10:11:28.167Z,22.88
2018-05-12T10:12:28.159Z,22.96
2018-05-12T10:13:28.142Z,23.07
2018-05-12T10:14:28.121Z,23.24
2018-05-12T10:15:28.196Z,23.35
2018-05-12T10:16:28.075Z,23.47
2018-05-12T10:17:28.066Z,23.29
2018-05-12T10:18:28.106Z,23.28
2018-05-12T10:19:28.088Z,23.25
2018-05-12T10:20:28.011Z,23.32
2018-05-12T10:21:27.989Z,23.29
2018-05-12T10:22:27.973Z,23.32
2018-05-12T10:23:28.008Z,23.48
2018-05-12T10:24:27.934Z,23.56
2018-05-12T10:25:27.920Z,23.66
2018-05-12T10:26:27.894Z,23.75
2018-05-12T10:27:27.876Z,23.72
2018-05-12T10:28:27.899Z,23.74
2018-05-12T10:29:27.891Z,23.81
2018-05-12T10:30:27.821Z,23.89
2018-05-12T10:31:27.803Z,23.85
2018-05-12T10:32:27.804Z,23.99
2018-05-12T10:33:27.815Z,24.08
2018-05-12T10:34:27.801Z,24.15
2018-05-12T10:35:27.740Z,24.19
2018-05-12T10:36:27.765Z,24.26
2018-05-12T10:37:27.698Z,24.39
2018-05-12T10:38:27.729Z,24.49
2018-05-12T10:39:27.670Z,24.66
2018-05-12T10:40:27.656Z,24.63
2018-05-12T10:41:27.677Z,24.75
2018-05-12T10:42:27.619Z,24.66
2018-05-12T10:43:27.596Z,24.46
2018-05-12T10:44:27.577Z,24.45
2018-05-12T10:45:27.666Z,24.30
2018-05-12T10:46:27.548Z,24.21
2018-05-12T10:47:27.549Z,24.07
2018-05-12T10:48:27.521Z,23.97
2018-05-12T10:49:27.491Z,24.02
2018-05-12T10:50:27.592Z,24.11
2018-05-12T10:51:27.460Z,24.14
2018-05-12T10:52:27.455Z,24.29
2018-05-12T10:53:27.480Z,24.40
2018-05-12T10:54:27.418Z,24.52
2018-05-12T10:55:27.399Z,24.45
2018-05-12T10:56:27.390Z,24.51
2018-05-12T10:57:27.359Z,24.69
2018-05-12T10:58:27.443Z,24.66
2018-05-12T10:59:27.326Z,24.71
2018-05-12T11:00:27.353Z,24.71
2018-05-12T11:01:27.366Z,24.80
2018-05-12T11:02:27.274Z,24.90
2018-05-12T11:03:27.258Z,24.94
2018-05-12T11:04:27.240Z,24.89
2018-05-12T11:05:27.250Z,24.77
2018-05-12T11:06:27.261Z,24.78
2018-05-12T11:07:27.240Z,24.64
2018-05-12T11:08:27.173Z,24.54
2018-05-12T11:09:27.213Z,24.49
2018-05-12T11:10:27.153Z,24.40
2018-05-12T11:11:27.126Z,24.36
2018-05-12T11:12:27.924Z,24.21
2018-05-12T11:13:27.145Z,24.27
2018-05-12T11:14:27.080Z,24.21
2018-05-12T11:15:27.063Z,24.07
2018-05-12T11:16:27.089Z,24.02
2018-05-12T11:17:27.034Z,24.03
2018-05-12T11:18:27.059Z,24.07
2018-05-12T11:19:26.992Z,24.12
2018-05-12T11:20:27.027Z,24.08
2018-05-12T11:21:26.959Z,23.97
2018-05-12T11:22:26.939Z,23.94
2018-05-12T11:23:26.962Z,23.94
2018-05-12T11:24:26.908Z,23.94
2018-05-12T11:25:26.885Z,23.94
2018-05-12T11:26:26.956Z,24.00
2018-05-12T11:27:26.906Z,24.12
2018-05-12T11:28:26.886Z,24.17
2018-05-12T11:29:26.825Z,24.07
2018-05-12T11:30:26.807Z,24.17
2018-05-12T11:31:26.785Z,24.04
2018-05-12T11:32:26.766Z,23.92
2018-05-12T11:33:26.806Z,23.78
2018-05-12T11:34:26.732Z,23.52
2018-05-12T11:35:26.715Z,23.67
2018-05-12T11:36:26.700Z,23.42
2018-05-12T11:37:26.682Z,23.38
2018-05-12T11:38:26.736Z,23.38
2018-05-12T11:39:26.640Z,23.25
2018-05-12T11:40:26.636Z,23.38
2018-05-12T11:41:26.612Z,23.24
2018-05-12T11:42:26.592Z,23.40
2018-05-12T11:43:26.630Z,23.47
2018-05-12T11:44:26.616Z,23.56
2018-05-12T11:45:26.540Z,23.53
2018-05-12T11:46:26.543Z,23.53
2018-05-12T11:47:26.503Z,23.78
2018-05-12T11:48:26.532Z,23.89
2018-05-12T11:49:26.512Z,23.90
2018-05-12T11:50:26.446Z,24.11
2018-05-12T11:51:26.512Z,24.00
2018-05-12T11:52:26.414Z,23.94
2018-05-12T11:53:26.403Z,23.74
2018-05-12T11:54:26.446Z,23.74
2018-05-12T11:55:26.355Z,23.67
2018-05-12T11:56:26.335Z,23.50
2018-05-12T11:57:26.330Z,23.41
2018-05-12T11:58:26.388Z,23.28
2018-05-12T11:59:26.327Z,23.34
2018-05-12T12:00:26.297Z,23.28
2018-05-12T12:01:26.287Z,23.34
2018-05-12T12:02:26.287Z,23.29
2018-05-12T12:03:26.213Z,23.26
2018-05-12T12:04:26.203Z,23.26
2018-05-12T12:05:26.176Z,23.09
2018-05-12T12:06:26.217Z,22.94
2018-05-12T12:07:26.143Z,22.84
2018-05-12T12:08:26.113Z,22.71
2018-05-12T12:09:26.097Z,22.64
2018-05-12T12:10:26.079Z,22.52
2018-05-12T12:11:26.107Z,22.36
2018-05-12T12:12:26.052Z,22.49
2018-05-12T12:13:26.026Z,22.52
2018-05-12T12:14:26.055Z,22.42
2018-05-12T12:15:25.987Z,22.45
2018-05-12T12:16:25.969Z,22.49
2018-05-12T12:17:25.939Z,22.46
2018-05-12T12:18:25.921Z,22.61
2018-05-12T12:19:25.948Z,22.63
2018-05-12T12:20:25.891Z,22.69
2018-05-12T12:21:25.862Z,22.70
2018-05-12T12:22:25.851Z,22.69
2018-05-12T12:23:25.829Z,22.67
2018-05-12T12:24:25.867Z,22.66
2018-05-12T12:25:25.785Z,22.59
2018-05-12T12:26:25.781Z,22.57
2018-05-12T12:27:25.749Z,22.55
2018-05-12T12:28:25.850Z,22.52
2018-05-12T12:29:25.781Z,22.51
2018-05-12T12:30:25.694Z,22.59
2018-05-12T12:31:25.676Z,22.60
2018-05-12T12:32:25.650Z,22.66
2018-05-12T12:33:25.709Z,22.66
2018-05-12T12:34:25.657Z,22.46
2018-05-12T12:35:25.594Z,22.45
2018-05-12T12:36:25.632Z,22.27
2018-05-12T12:37:25.554Z,22.31
2018-05-12T12:38:25.536Z,22.33
2018-05-12T12:39:25.546Z,22.33
2018-05-12T12:40:25.492Z,22.39
2018-05-12T12:41:25.540Z,22.52
2018-05-12T12:42:25.457Z,22.41
2018-05-12T12:43:25.437Z,22.46
2018-05-12T12:44:25.419Z,22.57
2018-05-12T12:45:25.401Z,22.55
2018-05-12T12:46:25.428Z,22.66
2018-05-12T12:47:25.409Z,22.76
2018-05-12T12:48:25.340Z,22.78
2018-05-12T12:49:25.333Z,22.82
2018-05-12T12:50:25.301Z,22.89
2018-05-12T12:51:25.282Z,22.91
2018-05-12T12:52:25.306Z,23.04
2018-05-12T12:53:25.236Z,22.91
2018-05-12T12:54:25.216Z,22.75
2018-05-12T12:55:25.199Z,22.73
2018-05-12T12:56:25.219Z,22.67